sensor_id;sensor_type;location;lat;lon;timestamp;P1;durP1;ratioP1;P2;durP2;ratioP2
65759;SDS011;52496;51.082;5.066;2022-07-17T00:02:27;7.55;;;2.83;;
65759;SDS011;52496;51.082;5.066;2022-07-17T00:04:57;10.90;;;2.72;;
65759;SDS011;52496;51.082;5.066;2022-07-17T00:07:28;4.63;;;2.20;;
65759;SDS011;52496;51.082;5.066;2022-07-17T00:09:58;5.05;;;2.50;;
65759;SDS011;52496;51.082;5.066;2022-07-17T00:12:29;4.95;;;2.50;;
65759;SDS011;52496;51.082;5.066;2022-07-17T00:14:59;5.15;;;2.67;;
65759;SDS011;52496;51.082;5.066;2022-07-17T00:17:30;9.02;;;2.75;;
65759;SDS011;52496;51.082;5.066;2022-07-17T00:20:00;5.90;;;2.40;;
65759;SDS011;52496;51.082;5.066;2022-07-17T00:22:30;7.53;;;3.58;;
65759;SDS011;52496;51.082;5.066;2022-07-17T00:25:01;5.70;;;2.72;;
65759;SDS011;52496;51.082;5.066;2022-07-17T00:27:32;7.20;;;2.72;;
65759;SDS011;52496;51.082;5.066;2022-07-17T00:30:03;4.50;;;2.42;;
65759;SDS011;52496;51.082;5.066;2022-07-17T00:32:34;11.48;;;2.90;;
65759;SDS011;52496;51.082;5.066;2022-07-17T00:35:05;5.47;;;3.20;;
65759;SDS011;52496;51.082;5.066;2022-07-17T00:37:38;6.78;;;2.97;;
65759;SDS011;52496;51.082;5.066;2022-07-17T00:40:11;6.18;;;3.13;;
65759;SDS011;52496;51.082;5.066;2022-07-17T00:42:43;5.90;;;3.10;;
65759;SDS011;52496;51.082;5.066;2022-07-17T00:45:14;10.60;;;3.55;;
65759;SDS011;52496;51.082;5.066;2022-07-17T00:47:55;6.93;;;3.95;;
65759;SDS011;52496;51.082;5.066;2022-07-17T00:50:29;6.55;;;3.13;;
65759;SDS011;52496;51.082;5.066;2022-07-17T00:53:01;10.02;;;4.20;;
65759;SDS011;52496;51.082;5.066;2022-07-17T00:55:32;5.53;;;2.40;;
65759;SDS011;52496;51.082;5.066;2022-07-17T00:58:03;6.40;;;2.78;;
65759;SDS011;52496;51.082;5.066;2022-07-17T01:00:34;7.45;;;3.10;;
65759;SDS011;52496;51.082;5.066;2022-07-17T01:03:05;6.10;;;3.00;;
65759;SDS011;52496;51.082;5.066;2022-07-17T01:05:39;6.15;;;3.15;;
65759;SDS011;52496;51.082;5.066;2022-07-17T01:08:10;10.43;;;3.65;;
65759;SDS011;52496;51.082;5.066;2022-07-17T01:10:40;4.30;;;2.53;;
65759;SDS011;52496;51.082;5.066;2022-07-17T01:13:11;5.20;;;2.50;;
65759;SDS011;52496;51.082;5.066;2022-07-17T01:15:42;7.72;;;2.90;;
65759;SDS011;52496;51.082;5.066;2022-07-17T01:18:13;7.43;;;3.20;;
65759;SDS011;52496;51.082;5.066;2022-07-17T01:20:46;7.78;;;2.92;;
65759;SDS011;52496;51.082;5.066;2022-07-17T01:23:18;6.57;;;3.17;;
65759;SDS011;52496;51.082;5.066;2022-07-17T01:25:49;7.32;;;3.10;;
65759;SDS011;52496;51.082;5.066;2022-07-17T01:28:19;7.75;;;3.08;;
65759;SDS011;52496;51.082;5.066;2022-07-17T01:30:50;8.98;;;3.00;;
65759;SDS011;52496;51.082;5.066;2022-07-17T01:33:21;7.80;;;3.10;;
65759;SDS011;52496;51.082;5.066;2022-07-17T01:35:52;7.97;;;2.60;;
65759;SDS011;52496;51.082;5.066;2022-07-17T01:38:22;6.60;;;3.13;;
65759;SDS011;52496;51.082;5.066;2022-07-17T01:40:53;5.35;;;2.78;;
65759;SDS011;52496;51.082;5.066;2022-07-17T01:43:23;6.20;;;2.83;;
65759;SDS011;52496;51.082;5.066;2022-07-17T01:45:54;6.07;;;2.90;;
65759;SDS011;52496;51.082;5.066;2022-07-17T01:48:25;7.68;;;2.85;;
65759;SDS011;52496;51.082;5.066;2022-07-17T01:50:57;5.95;;;3.00;;
65759;SDS011;52496;51.082;5.066;2022-07-17T01:53:28;7.43;;;3.60;;
65759;SDS011;52496;51.082;5.066;2022-07-17T01:55:58;4.38;;;2.65;;
65759;SDS011;52496;51.082;5.066;2022-07-17T01:58:29;5.28;;;2.90;;
65759;SDS011;52496;51.082;5.066;2022-07-17T02:00:59;10.25;;;3.88;;
65759;SDS011;52496;51.082;5.066;2022-07-17T02:03:30;8.25;;;2.80;;
65759;SDS011;52496;51.082;5.066;2022-07-17T02:06:00;6.40;;;2.90;;
65759;SDS011;52496;51.082;5.066;2022-07-17T02:08:31;7.75;;;3.10;;
65759;SDS011;52496;51.082;5.066;2022-07-17T02:11:01;8.45;;;3.45;;
65759;SDS011;52496;51.082;5.066;2022-07-17T02:13:32;10.70;;;3.58;;
65759;SDS011;52496;51.082;5.066;2022-07-17T02:16:02;7.50;;;3.35;;
65759;SDS011;52496;51.082;5.066;2022-07-17T02:18:33;8.70;;;3.10;;
65759;SDS011;52496;51.082;5.066;2022-07-17T02:21:04;10.10;;;3.38;;
65759;SDS011;52496;51.082;5.066;2022-07-17T02:23:35;10.85;;;3.60;;
65759;SDS011;52496;51.082;5.066;2022-07-17T02:26:05;7.28;;;2.90;;
65759;SDS011;52496;51.082;5.066;2022-07-17T02:28:36;6.32;;;3.10;;
65759;SDS011;52496;51.082;5.066;2022-07-17T02:31:06;7.65;;;3.42;;
65759;SDS011;52496;51.082;5.066;2022-07-17T02:33:37;6.07;;;2.88;;
65759;SDS011;52496;51.082;5.066;2022-07-17T02:36:07;7.43;;;3.40;;
65759;SDS011;52496;51.082;5.066;2022-07-17T02:38:38;11.80;;;3.17;;
65759;SDS011;52496;51.082;5.066;2022-07-17T02:41:08;6.13;;;3.72;;
65759;SDS011;52496;51.082;5.066;2022-07-17T02:43:39;8.45;;;3.35;;
65759;SDS011;52496;51.082;5.066;2022-07-17T02:46:09;7.63;;;3.38;;
65759;SDS011;52496;51.082;5.066;2022-07-17T02:48:42;4.95;;;3.17;;
65759;SDS011;52496;51.082;5.066;2022-07-17T02:51:13;7.40;;;3.25;;
65759;SDS011;52496;51.082;5.066;2022-07-17T02:53:44;8.00;;;3.20;;
65759;SDS011;52496;51.082;5.066;2022-07-17T02:56:14;6.63;;;3.05;;
65759;SDS011;52496;51.082;5.066;2022-07-17T02:58:45;8.85;;;3.50;;
65759;SDS011;52496;51.082;5.066;2022-07-17T03:01:15;6.13;;;3.22;;
65759;SDS011;52496;51.082;5.066;2022-07-17T03:03:46;6.85;;;3.13;;
65759;SDS011;52496;51.082;5.066;2022-07-17T03:06:16;6.55;;;3.00;;
65759;SDS011;52496;51.082;5.066;2022-07-17T03:08:47;6.22;;;3.63;;
65759;SDS011;52496;51.082;5.066;2022-07-17T03:11:17;13.80;;;4.03;;
65759;SDS011;52496;51.082;5.066;2022-07-17T03:13:49;7.88;;;3.25;;
65759;SDS011;52496;51.082;5.066;2022-07-17T03:16:19;5.82;;;3.50;;
65759;SDS011;52496;51.082;5.066;2022-07-17T03:18:50;7.05;;;3.10;;
65759;SDS011;52496;51.082;5.066;2022-07-17T03:21:20;5.93;;;3.30;;
65759;SDS011;52496;51.082;5.066;2022-07-17T03:23:51;8.38;;;3.53;;
65759;SDS011;52496;51.082;5.066;2022-07-17T03:26:21;5.20;;;3.33;;
65759;SDS011;52496;51.082;5.066;2022-07-17T03:28:51;6.88;;;3.35;;
65759;SDS011;52496;51.082;5.066;2022-07-17T03:31:22;7.35;;;3.47;;
65759;SDS011;52496;51.082;5.066;2022-07-17T03:33:52;6.40;;;3.28;;
65759;SDS011;52496;51.082;5.066;2022-07-17T03:36:23;7.22;;;3.17;;
65759;SDS011;52496;51.082;5.066;2022-07-17T03:38:53;5.60;;;2.90;;
65759;SDS011;52496;51.082;5.066;2022-07-17T03:41:24;4.65;;;2.95;;
65759;SDS011;52496;51.082;5.066;2022-07-17T03:43:54;8.75;;;3.55;;
65759;SDS011;52496;51.082;5.066;2022-07-17T03:46:24;11.68;;;3.60;;
65759;SDS011;52496;51.082;5.066;2022-07-17T03:48:55;6.30;;;3.15;;
65759;SDS011;52496;51.082;5.066;2022-07-17T03:51:25;6.93;;;3.50;;
65759;SDS011;52496;51.082;5.066;2022-07-17T03:53:56;8.35;;;3.53;;
65759;SDS011;52496;51.082;5.066;2022-07-17T03:56:26;8.05;;;3.38;;
65759;SDS011;52496;51.082;5.066;2022-07-17T03:58:57;8.05;;;3.20;;
65759;SDS011;52496;51.082;5.066;2022-07-17T04:01:27;8.25;;;3.35;;
65759;SDS011;52496;51.082;5.066;2022-07-17T04:03:58;10.10;;;3.78;;
65759;SDS011;52496;51.082;5.066;2022-07-17T04:06:28;6.80;;;3.30;;
65759;SDS011;52496;51.082;5.066;2022-07-17T04:08:59;8.57;;;3.80;;
65759;SDS011;52496;51.082;5.066;2022-07-17T04:11:29;7.68;;;4.63;;
65759;SDS011;52496;51.082;5.066;2022-07-17T04:14:00;8.38;;;3.80;;
65759;SDS011;52496;51.082;5.066;2022-07-17T04:16:30;8.88;;;3.30;;
65759;SDS011;52496;51.082;5.066;2022-07-17T04:19:01;8.02;;;3.28;;
65759;SDS011;52496;51.082;5.066;2022-07-17T04:21:31;7.82;;;3.60;;
65759;SDS011;52496;51.082;5.066;2022-07-17T04:24:02;7.88;;;3.35;;
65759;SDS011;52496;51.082;5.066;2022-07-17T04:26:32;4.90;;;3.35;;
65759;SDS011;52496;51.082;5.066;2022-07-17T04:29:03;9.07;;;3.58;;
65759;SDS011;52496;51.082;5.066;2022-07-17T04:31:33;7.25;;;3.30;;
65759;SDS011;52496;51.082;5.066;2022-07-17T04:34:04;8.63;;;3.67;;
65759;SDS011;52496;51.082;5.066;2022-07-17T04:36:34;6.32;;;3.35;;
65759;SDS011;52496;51.082;5.066;2022-07-17T04:39:05;8.93;;;3.80;;
65759;SDS011;52496;51.082;5.066;2022-07-17T04:41:35;6.65;;;4.00;;
65759;SDS011;52496;51.082;5.066;2022-07-17T04:44:06;7.47;;;3.90;;
65759;SDS011;52496;51.082;5.066;2022-07-17T04:46:36;8.65;;;4.13;;
65759;SDS011;52496;51.082;5.066;2022-07-17T04:49:07;6.57;;;3.90;;
65759;SDS011;52496;51.082;5.066;2022-07-17T04:51:37;7.32;;;3.53;;
65759;SDS011;52496;51.082;5.066;2022-07-17T04:54:08;8.75;;;3.97;;
65759;SDS011;52496;51.082;5.066;2022-07-17T04:56:38;10.05;;;3.55;;
65759;SDS011;52496;51.082;5.066;2022-07-17T04:59:09;7.63;;;3.35;;
65759;SDS011;52496;51.082;5.066;2022-07-17T05:01:39;9.40;;;4.38;;
65759;SDS011;52496;51.082;5.066;2022-07-17T05:04:09;7.28;;;4.57;;
65759;SDS011;52496;51.082;5.066;2022-07-17T05:06:40;9.38;;;4.32;;
65759;SDS011;52496;51.082;5.066;2022-07-17T05:09:10;6.90;;;3.70;;
65759;SDS011;52496;51.082;5.066;2022-07-17T05:11:41;10.07;;;3.72;;
65759;SDS011;52496;51.082;5.066;2022-07-17T05:14:11;9.57;;;3.80;;
65759;SDS011;52496;51.082;5.066;2022-07-17T05:16:42;9.15;;;4.05;;
65759;SDS011;52496;51.082;5.066;2022-07-17T05:19:12;6.05;;;3.60;;
65759;SDS011;52496;51.082;5.066;2022-07-17T05:21:43;7.97;;;4.40;;
65759;SDS011;52496;51.082;5.066;2022-07-17T05:24:13;11.30;;;4.45;;
65759;SDS011;52496;51.082;5.066;2022-07-17T05:26:44;9.38;;;3.80;;
65759;SDS011;52496;51.082;5.066;2022-07-17T05:29:14;8.82;;;4.10;;
65759;SDS011;52496;51.082;5.066;2022-07-17T05:31:45;7.13;;;3.45;;
65759;SDS011;52496;51.082;5.066;2022-07-17T05:34:15;9.07;;;4.15;;
65759;SDS011;52496;51.082;5.066;2022-07-17T05:36:45;9.65;;;5.07;;
65759;SDS011;52496;51.082;5.066;2022-07-17T05:39:16;11.38;;;3.80;;
65759;SDS011;52496;51.082;5.066;2022-07-17T05:41:46;11.27;;;4.20;;
65759;SDS011;52496;51.082;5.066;2022-07-17T05:44:17;6.25;;;3.95;;
65759;SDS011;52496;51.082;5.066;2022-07-17T05:46:47;6.75;;;4.15;;
65759;SDS011;52496;51.082;5.066;2022-07-17T05:49:18;11.75;;;4.03;;
65759;SDS011;52496;51.082;5.066;2022-07-17T05:51:48;5.07;;;2.88;;
65759;SDS011;52496;51.082;5.066;2022-07-17T05:54:19;7.03;;;3.78;;
65759;SDS011;52496;51.082;5.066;2022-07-17T05:56:49;8.15;;;3.47;;
65759;SDS011;52496;51.082;5.066;2022-07-17T05:59:20;7.07;;;4.05;;
65759;SDS011;52496;51.082;5.066;2022-07-17T06:01:50;7.22;;;3.38;;
65759;SDS011;52496;51.082;5.066;2022-07-17T06:04:21;6.43;;;3.40;;
65759;SDS011;52496;51.082;5.066;2022-07-17T06:06:51;10.70;;;3.60;;
65759;SDS011;52496;51.082;5.066;2022-07-17T06:09:22;12.88;;;4.00;;
65759;SDS011;52496;51.082;5.066;2022-07-17T06:11:52;7.43;;;3.67;;
65759;SDS011;52496;51.082;5.066;2022-07-17T06:14:23;7.40;;;4.10;;
65759;SDS011;52496;51.082;5.066;2022-07-17T06:16:54;8.82;;;4.15;;
65759;SDS011;52496;51.082;5.066;2022-07-17T06:19:25;6.40;;;4.35;;
65759;SDS011;52496;51.082;5.066;2022-07-17T06:21:55;8.68;;;3.60;;
65759;SDS011;52496;51.082;5.066;2022-07-17T06:24:26;5.93;;;3.40;;
65759;SDS011;52496;51.082;5.066;2022-07-17T06:26:57;10.48;;;3.25;;
65759;SDS011;52496;51.082;5.066;2022-07-17T06:29:27;9.98;;;3.40;;
65759;SDS011;52496;51.082;5.066;2022-07-17T06:31:58;6.57;;;3.03;;
65759;SDS011;52496;51.082;5.066;2022-07-17T06:34:28;7.53;;;3.17;;
65759;SDS011;52496;51.082;5.066;2022-07-17T06:36:59;7.47;;;3.53;;
65759;SDS011;52496;51.082;5.066;2022-07-17T06:39:29;6.88;;;3.20;;
65759;SDS011;52496;51.082;5.066;2022-07-17T06:42:00;7.97;;;3.20;;
65759;SDS011;52496;51.082;5.066;2022-07-17T06:44:30;9.15;;;3.05;;
65759;SDS011;52496;51.082;5.066;2022-07-17T06:47:01;8.88;;;3.40;;
65759;SDS011;52496;51.082;5.066;2022-07-17T06:49:33;7.72;;;3.38;;
65759;SDS011;52496;51.082;5.066;2022-07-17T06:52:03;6.10;;;2.85;;
65759;SDS011;52496;51.082;5.066;2022-07-17T06:54:34;6.72;;;2.97;;
65759;SDS011;52496;51.082;5.066;2022-07-17T06:57:05;8.68;;;3.03;;
65759;SDS011;52496;51.082;5.066;2022-07-17T06:59:35;9.35;;;3.53;;
65759;SDS011;52496;51.082;5.066;2022-07-17T07:02:05;12.48;;;3.00;;
65759;SDS011;52496;51.082;5.066;2022-07-17T07:04:36;7.60;;;2.88;;
65759;SDS011;52496;51.082;5.066;2022-07-17T07:07:07;7.47;;;3.20;;
65759;SDS011;52496;51.082;5.066;2022-07-17T07:09:37;10.73;;;3.53;;
65759;SDS011;52496;51.082;5.066;2022-07-17T07:12:08;5.18;;;2.92;;
65759;SDS011;52496;51.082;5.066;2022-07-17T07:14:38;7.80;;;2.88;;
65759;SDS011;52496;51.082;5.066;2022-07-17T07:17:09;8.68;;;2.90;;
65759;SDS011;52496;51.082;5.066;2022-07-17T07:19:40;8.50;;;2.85;;
65759;SDS011;52496;51.082;5.066;2022-07-17T07:22:10;9.35;;;2.92;;
65759;SDS011;52496;51.082;5.066;2022-07-17T07:24:40;12.52;;;2.88;;
65759;SDS011;52496;51.082;5.066;2022-07-17T07:27:11;9.48;;;3.20;;
65759;SDS011;52496;51.082;5.066;2022-07-17T07:29:41;7.03;;;2.42;;
65759;SDS011;52496;51.082;5.066;2022-07-17T07:32:12;7.75;;;2.72;;
65759;SDS011;52496;51.082;5.066;2022-07-17T07:34:42;9.98;;;2.90;;
65759;SDS011;52496;51.082;5.066;2022-07-17T07:37:13;11.63;;;3.22;;
65759;SDS011;52496;51.082;5.066;2022-07-17T07:39:43;7.30;;;2.63;;
65759;SDS011;52496;51.082;5.066;2022-07-17T07:42:14;7.13;;;2.60;;
65759;SDS011;52496;51.082;5.066;2022-07-17T07:44:44;7.55;;;3.03;;
65759;SDS011;52496;51.082;5.066;2022-07-17T07:47:15;8.18;;;2.60;;
65759;SDS011;52496;51.082;5.066;2022-07-17T07:49:46;4.55;;;2.17;;
65759;SDS011;52496;51.082;5.066;2022-07-17T07:52:16;6.75;;;2.10;;
65759;SDS011;52496;51.082;5.066;2022-07-17T07:54:47;4.50;;;1.60;;
65759;SDS011;52496;51.082;5.066;2022-07-17T07:57:17;7.43;;;2.78;;
65759;SDS011;52496;51.082;5.066;2022-07-17T07:59:47;7.07;;;2.33;;
65759;SDS011;52496;51.082;5.066;2022-07-17T08:02:18;6.70;;;2.13;;
65759;SDS011;52496;51.082;5.066;2022-07-17T08:04:48;4.97;;;1.73;;
65759;SDS011;52496;51.082;5.066;2022-07-17T08:07:19;4.47;;;1.85;;
65759;SDS011;52496;51.082;5.066;2022-07-17T08:09:49;8.93;;;2.20;;
65759;SDS011;52496;51.082;5.066;2022-07-17T08:12:20;9.50;;;2.25;;
65759;SDS011;52496;51.082;5.066;2022-07-17T08:14:51;8.15;;;1.92;;
65759;SDS011;52496;51.082;5.066;2022-07-17T08:17:22;6.35;;;1.90;;
65759;SDS011;52496;51.082;5.066;2022-07-17T08:19:52;9.15;;;2.35;;
65759;SDS011;52496;51.082;5.066;2022-07-17T08:22:22;7.78;;;1.65;;
65759;SDS011;52496;51.082;5.066;2022-07-17T08:24:53;5.65;;;2.15;;
65759;SDS011;52496;51.082;5.066;2022-07-17T08:27:23;7.50;;;2.28;;
65759;SDS011;52496;51.082;5.066;2022-07-17T08:29:54;5.57;;;2.15;;
65759;SDS011;52496;51.082;5.066;2022-07-17T08:32:24;7.00;;;2.00;;
65759;SDS011;52496;51.082;5.066;2022-07-17T08:34:55;6.10;;;2.40;;
65759;SDS011;52496;51.082;5.066;2022-07-17T08:37:26;6.53;;;2.13;;
65759;SDS011;52496;51.082;5.066;2022-07-17T08:39:57;5.93;;;2.03;;
65759;SDS011;52496;51.082;5.066;2022-07-17T08:42:27;6.07;;;2.20;;
65759;SDS011;52496;51.082;5.066;2022-07-17T08:45:01;2.97;;;1.58;;
65759;SDS011;52496;51.082;5.066;2022-07-17T08:47:32;3.88;;;1.77;;
65759;SDS011;52496;51.082;5.066;2022-07-17T08:50:03;4.18;;;1.90;;
65759;SDS011;52496;51.082;5.066;2022-07-17T08:52:34;4.88;;;2.00;;
65759;SDS011;52496;51.082;5.066;2022-07-17T08:55:08;7.35;;;2.28;;
65759;SDS011;52496;51.082;5.066;2022-07-17T08:57:44;5.78;;;1.90;;
65759;SDS011;52496;51.082;5.066;2022-07-17T09:00:16;4.22;;;1.90;;
65759;SDS011;52496;51.082;5.066;2022-07-17T09:03:02;4.78;;;1.90;;
65759;SDS011;52496;51.082;5.066;2022-07-17T09:05:35;4.65;;;2.58;;
65759;SDS011;52496;51.082;5.066;2022-07-17T09:08:07;3.83;;;1.83;;
65759;SDS011;52496;51.082;5.066;2022-07-17T09:10:40;4.88;;;1.80;;
65759;SDS011;52496;51.082;5.066;2022-07-17T09:13:13;4.78;;;1.67;;
65759;SDS011;52496;51.082;5.066;2022-07-17T09:18:47;6.55;;;2.28;;
65759;SDS011;52496;51.082;5.066;2022-07-17T09:21:26;4.15;;;1.73;;
65759;SDS011;52496;51.082;5.066;2022-07-17T09:23:59;6.78;;;2.00;;
65759;SDS011;52496;51.082;5.066;2022-07-17T09:26:33;4.47;;;2.17;;
65759;SDS011;52496;51.082;5.066;2022-07-17T09:29:04;3.75;;;1.73;;
65759;SDS011;52496;51.082;5.066;2022-07-17T09:31:35;10.40;;;2.33;;
65759;SDS011;52496;51.082;5.066;2022-07-17T09:34:15;4.32;;;1.90;;
65759;SDS011;52496;51.082;5.066;2022-07-17T09:36:57;2.53;;;1.70;;
65759;SDS011;52496;51.082;5.066;2022-07-17T09:39:35;3.88;;;1.98;;
65759;SDS011;52496;51.082;5.066;2022-07-17T09:42:06;5.15;;;2.05;;
65759;SDS011;52496;51.082;5.066;2022-07-17T09:44:38;4.32;;;2.10;;
65759;SDS011;52496;51.082;5.066;2022-07-17T09:47:09;4.38;;;1.95;;
65759;SDS011;52496;51.082;5.066;2022-07-17T09:49:41;7.25;;;1.75;;
65759;SDS011;52496;51.082;5.066;2022-07-17T09:52:12;2.28;;;1.50;;
65759;SDS011;52496;51.082;5.066;2022-07-17T09:54:46;4.28;;;1.73;;
65759;SDS011;52496;51.082;5.066;2022-07-17T09:57:18;5.13;;;1.67;;
65759;SDS011;52496;51.082;5.066;2022-07-17T09:59:48;2.63;;;1.73;;
65759;SDS011;52496;51.082;5.066;2022-07-17T10:02:19;3.58;;;1.90;;
65759;SDS011;52496;51.082;5.066;2022-07-17T10:04:51;4.70;;;1.85;;
65759;SDS011;52496;51.082;5.066;2022-07-17T10:07:23;2.30;;;1.60;;
65759;SDS011;52496;51.082;5.066;2022-07-17T10:09:54;5.32;;;2.38;;
65759;SDS011;52496;51.082;5.066;2022-07-17T10:12:27;4.40;;;1.98;;
65759;SDS011;52496;51.082;5.066;2022-07-17T10:14:59;4.22;;;1.88;;
65759;SDS011;52496;51.082;5.066;2022-07-17T10:17:29;5.57;;;1.88;;
65759;SDS011;52496;51.082;5.066;2022-07-17T10:20:00;7.35;;;2.10;;
65759;SDS011;52496;51.082;5.066;2022-07-17T10:22:44;5.75;;;1.70;;
65759;SDS011;52496;51.082;5.066;2022-07-17T10:25:17;5.85;;;1.98;;
65759;SDS011;52496;51.082;5.066;2022-07-17T10:27:49;5.32;;;2.22;;
65759;SDS011;52496;51.082;5.066;2022-07-17T10:30:25;4.57;;;2.13;;
65759;SDS011;52496;51.082;5.066;2022-07-17T10:32:58;5.38;;;2.15;;
65759;SDS011;52496;51.082;5.066;2022-07-17T10:35:40;4.03;;;2.10;;
65759;SDS011;52496;51.082;5.066;2022-07-17T10:38:15;4.18;;;1.90;;
65759;SDS011;52496;51.082;5.066;2022-07-17T10:40:46;5.05;;;1.88;;
65759;SDS011;52496;51.082;5.066;2022-07-17T10:43:16;3.97;;;1.80;;
65759;SDS011;52496;51.082;5.066;2022-07-17T10:45:46;4.22;;;1.55;;
65759;SDS011;52496;51.082;5.066;2022-07-17T10:48:21;3.85;;;1.75;;
65759;SDS011;52496;51.082;5.066;2022-07-17T10:50:53;5.35;;;2.05;;
65759;SDS011;52496;51.082;5.066;2022-07-17T10:53:32;3.88;;;2.05;;
65759;SDS011;52496;51.082;5.066;2022-07-17T10:56:06;3.88;;;2.00;;
65759;SDS011;52496;51.082;5.066;2022-07-17T10:58:39;3.30;;;1.83;;
65759;SDS011;52496;51.082;5.066;2022-07-17T11:01:18;4.22;;;1.83;;
65759;SDS011;52496;51.082;5.066;2022-07-17T11:03:54;3.17;;;1.67;;
65759;SDS011;52496;51.082;5.066;2022-07-17T11:06:27;3.70;;;1.70;;
65759;SDS011;52496;51.082;5.066;2022-07-17T11:14:13;3.15;;;1.55;;
65759;SDS011;52496;51.082;5.066;2022-07-17T11:16:54;4.55;;;1.77;;
65759;SDS011;52496;51.082;5.066;2022-07-17T11:19:35;5.72;;;2.00;;
65759;SDS011;52496;51.082;5.066;2022-07-17T11:22:12;4.68;;;1.90;;
65759;SDS011;52496;51.082;5.066;2022-07-17T11:24:44;3.50;;;1.60;;
65759;SDS011;52496;51.082;5.066;2022-07-17T11:27:24;6.10;;;2.10;;
65759;SDS011;52496;51.082;5.066;2022-07-17T11:29:57;5.30;;;2.00;;
65759;SDS011;52496;51.082;5.066;2022-07-17T11:32:33;5.88;;;2.05;;
65759;SDS011;52496;51.082;5.066;2022-07-17T11:35:15;3.53;;;1.95;;
65759;SDS011;52496;51.082;5.066;2022-07-17T11:37:49;3.85;;;1.88;;
65759;SDS011;52496;51.082;5.066;2022-07-17T11:40:20;4.18;;;1.88;;
65759;SDS011;52496;51.082;5.066;2022-07-17T11:42:58;4.05;;;1.92;;
65759;SDS011;52496;51.082;5.066;2022-07-17T11:48:01;3.83;;;1.90;;
65759;SDS011;52496;51.082;5.066;2022-07-17T11:50:32;2.50;;;1.65;;
65759;SDS011;52496;51.082;5.066;2022-07-17T11:53:03;3.78;;;1.90;;
65759;SDS011;52496;51.082;5.066;2022-07-17T11:55:35;4.50;;;1.90;;
65759;SDS011;52496;51.082;5.066;2022-07-17T11:58:07;4.45;;;1.90;;
65759;SDS011;52496;51.082;5.066;2022-07-17T12:00:37;3.08;;;1.73;;
65759;SDS011;52496;51.082;5.066;2022-07-17T12:03:08;3.70;;;1.85;;
65759;SDS011;52496;51.082;5.066;2022-07-17T12:05:38;3.25;;;1.90;;
65759;SDS011;52496;51.082;5.066;2022-07-17T12:08:09;4.53;;;1.80;;
65759;SDS011;52496;51.082;5.066;2022-07-17T12:10:59;3.00;;;1.73;;
65759;SDS011;52496;51.082;5.066;2022-07-17T12:16:29;6.40;;;1.88;;
65759;SDS011;52496;51.082;5.066;2022-07-17T12:24:27;4.15;;;2.05;;
65759;SDS011;52496;51.082;5.066;2022-07-17T12:27:00;3.33;;;1.65;;
65759;SDS011;52496;51.082;5.066;2022-07-17T12:29:31;3.65;;;1.92;;
65759;SDS011;52496;51.082;5.066;2022-07-17T12:32:05;2.45;;;1.55;;
65759;SDS011;52496;51.082;5.066;2022-07-17T12:34:47;4.55;;;2.00;;
65759;SDS011;52496;51.082;5.066;2022-07-17T12:37:19;4.15;;;1.70;;
65759;SDS011;52496;51.082;5.066;2022-07-17T12:39:51;3.22;;;1.70;;
65759;SDS011;52496;51.082;5.066;2022-07-17T12:42:21;4.95;;;1.60;;
65759;SDS011;52496;51.082;5.066;2022-07-17T12:44:52;3.60;;;1.60;;
65759;SDS011;52496;51.082;5.066;2022-07-17T12:47:22;11.73;;;2.20;;
65759;SDS011;52496;51.082;5.066;2022-07-17T12:49:52;3.60;;;1.70;;
65759;SDS011;52496;51.082;5.066;2022-07-17T12:52:23;3.95;;;1.60;;
65759;SDS011;52496;51.082;5.066;2022-07-17T12:54:53;5.45;;;1.75;;
65759;SDS011;52496;51.082;5.066;2022-07-17T12:57:25;4.25;;;1.90;;
65759;SDS011;52496;51.082;5.066;2022-07-17T12:59:55;5.40;;;1.98;;
65759;SDS011;52496;51.082;5.066;2022-07-17T13:02:26;3.85;;;1.60;;
65759;SDS011;52496;51.082;5.066;2022-07-17T13:04:56;4.18;;;2.08;;
65759;SDS011;52496;51.082;5.066;2022-07-17T13:07:27;4.13;;;1.65;;
65759;SDS011;52496;51.082;5.066;2022-07-17T13:09:57;2.55;;;1.55;;
65759;SDS011;52496;51.082;5.066;2022-07-17T13:12:28;3.53;;;1.77;;
65759;SDS011;52496;51.082;5.066;2022-07-17T13:14:58;5.53;;;1.77;;
65759;SDS011;52496;51.082;5.066;2022-07-17T13:17:29;2.75;;;1.70;;
65759;SDS011;52496;51.082;5.066;2022-07-17T13:19:59;5.10;;;2.10;;
65759;SDS011;52496;51.082;5.066;2022-07-17T13:22:30;4.47;;;1.73;;
65759;SDS011;52496;51.082;5.066;2022-07-17T13:25:01;3.95;;;1.60;;
65759;SDS011;52496;51.082;5.066;2022-07-17T13:27:31;3.72;;;1.77;;
65759;SDS011;52496;51.082;5.066;2022-07-17T13:30:02;4.10;;;1.80;;
65759;SDS011;52496;51.082;5.066;2022-07-17T13:32:33;3.78;;;1.65;;
65759;SDS011;52496;51.082;5.066;2022-07-17T13:35:04;4.03;;;1.92;;
65759;SDS011;52496;51.082;5.066;2022-07-17T13:37:36;3.63;;;1.70;;
65759;SDS011;52496;51.082;5.066;2022-07-17T13:40:08;3.70;;;1.67;;
65759;SDS011;52496;51.082;5.066;2022-07-17T13:42:39;3.15;;;1.42;;
65759;SDS011;52496;51.082;5.066;2022-07-17T13:45:09;2.35;;;1.50;;
65759;SDS011;52496;51.082;5.066;2022-07-17T13:47:40;4.53;;;1.70;;
65759;SDS011;52496;51.082;5.066;2022-07-17T13:50:11;4.70;;;2.13;;
65759;SDS011;52496;51.082;5.066;2022-07-17T13:52:42;2.92;;;1.70;;
65759;SDS011;52496;51.082;5.066;2022-07-17T13:55:13;4.68;;;1.98;;
65759;SDS011;52496;51.082;5.066;2022-07-17T13:57:44;5.57;;;1.73;;
65759;SDS011;52496;51.082;5.066;2022-07-17T14:00:14;3.20;;;1.60;;
65759;SDS011;52496;51.082;5.066;2022-07-17T14:02:45;4.80;;;1.60;;
65759;SDS011;52496;51.082;5.066;2022-07-17T14:05:16;3.85;;;1.67;;
65759;SDS011;52496;51.082;5.066;2022-07-17T14:07:46;3.42;;;1.58;;
65759;SDS011;52496;51.082;5.066;2022-07-17T14:10:17;2.85;;;1.77;;
65759;SDS011;52496;51.082;5.066;2022-07-17T14:12:47;3.95;;;1.70;;
65759;SDS011;52496;51.082;5.066;2022-07-17T14:15:18;3.28;;;1.65;;
65759;SDS011;52496;51.082;5.066;2022-07-17T14:17:49;3.90;;;1.65;;
65759;SDS011;52496;51.082;5.066;2022-07-17T14:20:19;3.78;;;1.75;;
65759;SDS011;52496;51.082;5.066;2022-07-17T14:22:50;4.78;;;2.08;;
65759;SDS011;52496;51.082;5.066;2022-07-17T14:25:20;3.35;;;1.50;;
65759;SDS011;52496;51.082;5.066;2022-07-17T14:27:50;6.10;;;1.92;;
65759;SDS011;52496;51.082;5.066;2022-07-17T14:30:21;3.92;;;1.90;;
65759;SDS011;52496;51.082;5.066;2022-07-17T14:32:52;3.90;;;1.70;;
65759;SDS011;52496;51.082;5.066;2022-07-17T14:35:22;3.67;;;1.98;;
65759;SDS011;52496;51.082;5.066;2022-07-17T14:37:53;3.47;;;1.70;;
65759;SDS011;52496;51.082;5.066;2022-07-17T14:40:24;6.55;;;1.70;;
65759;SDS011;52496;51.082;5.066;2022-07-17T14:42:54;2.60;;;1.45;;
65759;SDS011;52496;51.082;5.066;2022-07-17T14:45:25;3.15;;;1.70;;
65759;SDS011;52496;51.082;5.066;2022-07-17T14:47:56;3.17;;;1.55;;
65759;SDS011;52496;51.082;5.066;2022-07-17T14:50:26;5.18;;;2.13;;
65759;SDS011;52496;51.082;5.066;2022-07-17T14:52:57;3.05;;;1.63;;
65759;SDS011;52496;51.082;5.066;2022-07-17T14:55:27;3.78;;;1.60;;
65759;SDS011;52496;51.082;5.066;2022-07-17T14:57:57;3.88;;;1.60;;
65759;SDS011;52496;51.082;5.066;2022-07-17T15:00:28;5.18;;;1.52;;
65759;SDS011;52496;51.082;5.066;2022-07-17T15:02:58;4.07;;;1.90;;
65759;SDS011;52496;51.082;5.066;2022-07-17T15:05:29;6.20;;;1.80;;
65759;SDS011;52496;51.082;5.066;2022-07-17T15:08:01;3.50;;;1.90;;
65759;SDS011;52496;51.082;5.066;2022-07-17T15:10:32;2.88;;;1.90;;
65759;SDS011;52496;51.082;5.066;2022-07-17T15:13:03;3.92;;;2.05;;
65759;SDS011;52496;51.082;5.066;2022-07-17T15:15:34;5.80;;;1.85;;
65759;SDS011;52496;51.082;5.066;2022-07-17T15:18:04;2.90;;;1.83;;
65759;SDS011;52496;51.082;5.066;2022-07-17T15:20:35;3.58;;;1.92;;
65759;SDS011;52496;51.082;5.066;2022-07-17T15:23:06;2.95;;;1.77;;
65759;SDS011;52496;51.082;5.066;2022-07-17T15:25:37;4.80;;;1.90;;
65759;SDS011;52496;51.082;5.066;2022-07-17T15:28:07;4.13;;;1.98;;
65759;SDS011;52496;51.082;5.066;2022-07-17T15:30:38;4.25;;;1.75;;